Date,TemperatureHighF,TemperatureAvgF,TemperatureLowF,DewpointHighF,DewpointAvgF,DewpointLowF,HumidityHigh,HumidityAvg,HumidityLow,PressureMaxIn,PressureMinIn,WindSpeedMaxMPH,WindSpeedAvgMPH,GustSpeedMaxMPH,PrecipitationSumIn
2013-3-1,41,38,34,32,30,27,85,75,68,30.03,29.96,5,1,11,0.00
2013-3-2,36,35,32,31,29,27,87,80,71,30.08,29.98,10,1,15,0.00
2013-3-3,43,33,26,26,22,18,85,67,38,30.12,30.05,9,2,16,0.00
2013-3-4,58,43,25,42,29,21,90,63,34,30.16,29.91,5,0,9,0.00
2013-3-5,63,51,36,58,45,31,92,80,67,29.97,29.64,9,2,20,0.21
2013-3-6,43,37,30,31,27,21,87,68,59,30.22,29.95,19,3,26,0.00
2013-3-7,55,38,25,35,30,23,94,75,44,30.30,30.20,7,0,10,0.00
2013-3-8,64,42,27,37,30,24,94,68,26,30.33,30.19,7,0,8,0.00
2013-3-9,64,50,34,42,35,30,87,61,36,30.24,30.06,2,0,7,0.00
2013-3-10,75,61,48,49,42,36,66,51,34,30.09,29.90,10,1,19,0.00
2013-3-11,61,53,40,54,48,37,94,82,63,29.90,29.74,7,1,11,0.94
2013-3-12,56,44,31,37,34,30,95,71,44,30.11,29.88,14,1,14,0.00
2013-3-13,52,43,31,33,27,22,93,57,33,30.31,30.10,15,2,18,0.00
2013-3-14,56,40,29,32,23,17,79,54,22,30.38,30.21,10,1,10,0.00
2013-3-15,76,52,29,47,38,27,93,64,33,30.22,29.92,7,1,17,0.00
2013-3-16,77,61,47,49,45,41,87,59,30,29.95,29.82,7,1,14,0.00
2013-3-17,70,58,45,56,50,43,96,76,49,29.94,29.81,7,0,10,0.00
2013-3-18,68,58,50,63,55,49,97,91,81,29.84,29.67,19,1,42,0.63
2013-3-19,62,51,37,52,38,30,96,65,33,30.07,29.83,7,1,13,0.00
2013-3-20,58,47,37,33,27,16,77,50,24,30.11,29.91,9,1,20,0.00
2013-3-21,48,38,30,30,21,11,83,53,26,30.02,29.89,7,1,14,0.00
2013-3-22,48,42,35,41,34,27,93,74,55,30.02,29.92,2,0,5,0.07
2013-3-23,55,48,43,50,46,42,96,92,83,29.93,29.64,3,0,9,1.28
2013-3-24,61,51,40,56,46,29,97,84,62,29.74,29.43,13,2,22,0.92
2013-3-25,41,38,33,30,26,24,78,64,51,30.09,29.74,9,2,20,0.00
2013-3-26,41,36,33,29,28,26,81,71,59,30.30,30.08,6,1,17,0.00
2013-3-27,54,39,25,32,28,23,94,68,38,30.36,30.23,8,1,12,0.00
2013-3-28,62,45,29,37,31,27,94,65,30,30.33,30.20,7,1,11,0.00
2013-3-29,70,51,31,45,36,30,94,63,29,30.27,30.10,5,0,10,0.00
2013-3-30,71,56,45,56,48,40,96,77,47,30.12,29.93,2,0,9,0.34
2013-3-31,70,60,55,59,56,54,97,87,63,29.92,29.79,7,1,11,0.45